createdAt,value
2022-09-23T00:04:16.508Z,1016.33
2022-09-23T00:14:16.832Z,1016.30
2022-09-23T00:24:16.900Z,1016.39
2022-09-23T00:34:17.167Z,1016.38
2022-09-23T00:44:17.404Z,1016.33
2022-09-23T00:54:17.529Z,1016.21
2022-09-23T01:04:17.564Z,1016.14
2022-09-23T01:14:17.866Z,1016.16
2022-09-23T01:24:17.900Z,1016.08
2022-09-23T01:34:18.221Z,1016.09
2022-09-23T01:44:18.235Z,1016.10
2022-09-23T01:54:18.566Z,1016.09
2022-09-23T02:04:18.573Z,1016.00
2022-09-23T02:14:18.911Z,1016.01
2022-09-23T02:24:18.931Z,1016.00
2022-09-23T02:34:19.250Z,1016.00
2022-09-23T02:44:19.285Z,1015.90
2022-09-23T02:54:19.606Z,1015.94
2022-09-23T03:04:19.623Z,1015.93
2022-09-23T03:14:19.952Z,1015.85
2022-09-23T03:24:19.979Z,1015.98
2022-09-23T03:34:20.308Z,1015.98
2022-09-23T03:44:20.337Z,1015.99
2022-09-23T03:54:20.664Z,1016.02
2022-09-23T04:04:20.695Z,1015.95
2022-09-23T04:14:21.000Z,1015.97
2022-09-23T04:24:21.028Z,1015.86
2022-09-23T04:34:21.371Z,1015.88
2022-09-23T04:44:21.423Z,1015.95
2022-09-23T04:54:21.695Z,1015.97
2022-09-23T05:04:21.721Z,1016.03
2022-09-23T05:14:22.060Z,1016.03
2022-09-23T05:24:22.090Z,1016.06
2022-09-23T05:34:22.400Z,1016.00
2022-09-23T05:44:22.427Z,1015.99
2022-09-23T05:54:22.755Z,1015.98
2022-09-23T06:04:22.793Z,1016.05
2022-09-23T06:14:23.101Z,1016.09
2022-09-23T06:24:28.591Z,1016.14
2022-09-23T06:34:24.207Z,1016.06
2022-09-23T06:44:23.519Z,1016.10
2022-09-23T06:54:23.543Z,1016.13
2022-09-23T07:04:28.636Z,1016.17
2022-09-23T07:14:24.953Z,1016.25
2022-09-23T07:24:24.231Z,1016.26
2022-09-23T07:34:24.240Z,1016.28
2022-09-23T07:44:24.585Z,1016.29
2022-09-23T07:54:24.606Z,1016.26
2022-09-23T08:04:24.934Z,1016.30
2022-09-23T08:14:24.957Z,1016.24
2022-09-23T08:24:25.376Z,1016.34
2022-09-23T08:34:25.395Z,1016.24
2022-09-23T08:44:25.734Z,1016.17
2022-09-23T08:54:25.757Z,1016.14
2022-09-23T09:04:26.077Z,1016.05
2022-09-23T09:14:26.116Z,1016.02
2022-09-23T09:24:26.432Z,1015.80
2022-09-23T09:34:26.468Z,1015.73
2022-09-23T09:44:26.776Z,1015.52
2022-09-23T09:54:26.737Z,1015.42
2022-09-23T10:04:27.078Z,1015.29
2022-09-23T10:14:27.113Z,1015.25
2022-09-23T10:24:27.413Z,1015.16
2022-09-23T10:34:27.437Z,1015.10
2022-09-23T10:44:27.764Z,1015.04
2022-09-23T10:54:27.793Z,1014.97
2022-09-23T11:04:28.192Z,1014.96
2022-09-23T11:14:28.246Z,1014.79
2022-09-23T11:24:28.589Z,1014.72
2022-09-23T11:34:28.611Z,1014.65
2022-09-23T11:44:28.945Z,1014.52
2022-09-23T11:54:29.089Z,1014.33
2022-09-23T12:04:29.699Z,1014.21
2022-09-23T12:14:29.339Z,1014.03
2022-09-23T12:24:29.645Z,1013.99
2022-09-23T12:34:29.686Z,1013.90
2022-09-23T12:44:29.997Z,1013.72
2022-09-23T12:54:30.029Z,1013.61
2022-09-23T13:04:30.356Z,1013.51
2022-09-23T13:14:30.395Z,1013.42
2022-09-23T13:24:30.713Z,1013.30
2022-09-23T13:34:30.749Z,1013.23
2022-09-23T13:44:31.057Z,1013.05
2022-09-23T13:54:31.095Z,1013.06
2022-09-23T14:04:31.413Z,1012.88
2022-09-23T14:14:31.449Z,1012.83
2022-09-23T14:24:31.753Z,1012.78
2022-09-23T14:34:31.773Z,1012.68
2022-09-23T14:44:32.114Z,1012.72
2022-09-23T14:54:32.147Z,1012.58
2022-09-23T15:04:32.491Z,1012.55
2022-09-23T15:14:41.107Z,1012.57
2022-09-23T15:24:33.780Z,1012.45
2022-09-23T15:34:33.103Z,1012.42
2022-09-23T15:44:33.128Z,1012.44
2022-09-23T15:54:33.445Z,1012.43
2022-09-23T16:04:33.470Z,1012.36
2022-09-23T16:14:33.801Z,1012.36
2022-09-23T16:24:33.819Z,1012.32
2022-09-23T16:34:34.147Z,1012.37
2022-09-23T16:44:34.164Z,1012.33
2022-09-23T16:54:34.502Z,1012.41
2022-09-23T17:04:34.526Z,1012.38
2022-09-23T17:14:34.894Z,1012.39
2022-09-23T17:24:34.934Z,1012.43
2022-09-23T17:34:35.195Z,1012.38
2022-09-23T17:44:35.416Z,1012.35
2022-09-23T17:54:35.765Z,1012.39
2022-09-23T18:04:35.791Z,1012.44
2022-09-23T18:14:36.115Z,1012.52
2022-09-23T18:24:36.185Z,1012.52
2022-09-23T18:34:36.353Z,1012.67
2022-09-23T18:44:36.382Z,1012.54
2022-09-23T18:54:36.702Z,1012.44
2022-09-23T19:04:36.725Z,1012.41
2022-09-23T19:14:37.133Z,1012.37
2022-09-23T19:24:37.154Z,1012.44
2022-09-23T19:34:37.604Z,1012.38
2022-09-23T19:44:37.651Z,1012.40
2022-09-23T19:54:37.969Z,1012.52
2022-09-23T20:04:38.006Z,1012.49
2022-09-23T20:14:38.312Z,1012.36
2022-09-23T20:24:38.346Z,1012.34
2022-09-23T20:34:38.650Z,1012.31
2022-09-23T20:44:38.683Z,1012.25
2022-09-23T20:54:39.011Z,1012.27
2022-09-23T21:04:39.025Z,1012.21
2022-09-23T21:14:39.471Z,1012.24
2022-09-23T21:25:16.120Z,1012.21
2022-09-23T21:34:40.768Z,1012.16
2022-09-23T21:44:40.074Z,1012.23
2022-09-23T21:54:40.118Z,1012.33
2022-09-23T22:04:40.547Z,1012.30
2022-09-23T22:14:40.431Z,1012.13
2022-09-23T22:24:40.695Z,1012.30
2022-09-23T22:34:50.152Z,1012.23
2022-09-23T22:44:41.990Z,1012.42
2022-09-23T22:54:41.238Z,1012.30
2022-09-23T23:04:41.460Z,1012.32
2022-09-23T23:14:41.690Z,1012.34
2022-09-23T23:24:41.935Z,1012.26
2022-09-23T23:34:42.164Z,1012.17
2022-09-23T23:44:42.433Z,1012.05
2022-09-23T23:54:42.559Z,1011.97
